East Corinth, ME

4:14 AM EST on December 28, 2014 (GMT -0500)
KMEGARLA2 | Change Station
CLOSE
Current Station
Personal Weather Station
Location: Garland, ME
Elevation: 410 ft
Nearby Weather Stations

Elev 410 ft 45.02 °N, 69.13 °W | Updated 17 seconds ago

Rain
Rain
37.0 °F
Feels Like 32 °F
N
6.0
Wind Variable Wind from SW
Gusts 12.0 mph

Today
High -- | Low -- °F
--% Chance of Precip.
Yesterday
High -- | Low -- °F
Precip. -- in
7:13 AM 4:01 PM
Waxing Crescent, 46% visible
Pressure 29.80 in
Visibility 8.0 miles
Clouds Overcast 6000 ft
Windchill 32 °F
Dew Point 36 °F
Humidity 95%
Rainfall 0.05 in
Snow Depth Not available.
UV 0 out of 12
Pollen .10 out of 12
Air Quality Not available.
Flu Activity Not available.
METAR KBGR 280853Z 18004KT 8SM -RA OVC060 03/02 A2980 RMK AO2 SLP090 P0002 60004 T00280017 58027

More Conditions Fewer Conditions

Pressure 29.80 in
Visibility 8.0 miles
Clouds Overcast 6000 ft
Windchill 32 °F
Dew Point 36 °F
Humidity 95%
Rainfall 0.05 in
Snow Depth Not available.
UV 0 out of 12
Pollen .10 out of 12
Air Quality Not available.
Flu Activity Not available.
METAR KBGR 280853Z 18004KT 8SM -RA OVC060 03/02 A2980 RMK AO2 SLP090 P0002 60004 T00280017 58027

More Conditions Fewer Conditions

10-Day Weather Forecast

Almanac

Astronomy

Dec. 28, 2014 Rise Set
Actual Time
Civil Twilight
Nautical Twilight
Astronomical Twilight
Moon
Length of Visible Light
Length of Day
Tomorrow will be .
, % of the Moon is Illuminated

Today's Extremes

State Highs State Lows

Community

WunderPhotos

Upload Photos

1,781,210 photos uploaded!

WunderBlogs® & News

Nearby

Air Quality

  Air Quality AQ Index Pollutant
Not available.

Snow Depth

Station Depth Elevation

Earthquake Activity

City Distance Mag. Time & Date
Minimum magnitude displayed is 2.5.

Coastal Water Temperatures

Place Temperature

Nearby Weather Stations